createdAt,value
2023-01-20T00:00:49.504Z,99.99
2023-01-20T00:01:49.477Z,99.99
2023-01-20T00:02:49.486Z,99.99
2023-01-20T00:03:49.472Z,99.99
2023-01-20T00:04:49.427Z,99.99
2023-01-20T00:05:49.390Z,99.99
2023-01-20T00:06:49.397Z,99.99
2023-01-20T00:07:49.446Z,99.99
2023-01-20T00:08:49.462Z,99.99
2023-01-20T00:09:49.348Z,99.99
2023-01-20T00:10:49.316Z,99.99
2023-01-20T00:11:49.339Z,99.99
2023-01-20T00:12:49.313Z,99.99
2023-01-20T00:13:49.300Z,99.99
2023-01-20T00:14:49.288Z,99.99
2023-01-20T00:15:49.281Z,99.99
2023-01-20T00:16:49.239Z,99.99
2023-01-20T00:17:49.226Z,99.99
2023-01-20T00:18:49.215Z,99.99
2023-01-20T00:19:49.208Z,99.99
2023-01-20T00:20:49.205Z,99.99
2023-01-20T00:21:49.156Z,99.99
2023-01-20T00:22:49.164Z,99.99
2023-01-20T00:23:49.161Z,99.99
2023-01-20T00:24:49.160Z,99.99
2023-01-20T00:25:49.139Z,99.99
2023-01-20T00:26:49.106Z,99.99
2023-01-20T00:27:49.086Z,99.99
2023-01-20T00:28:49.209Z,99.99
2023-01-20T00:29:49.072Z,99.99
2023-01-20T00:30:49.130Z,99.99
2023-01-20T00:31:49.040Z,99.99
2023-01-20T00:32:49.129Z,99.99
2023-01-20T00:33:49.010Z,99.99
2023-01-20T00:34:49.007Z,99.99
2023-01-20T00:35:48.997Z,99.99
2023-01-20T00:36:48.983Z,99.99
2023-01-20T00:37:48.967Z,99.99
2023-01-20T00:38:48.952Z,99.99
2023-01-20T00:39:48.928Z,99.99
2023-01-20T00:40:48.920Z,99.99
2023-01-20T00:41:48.930Z,99.99
2023-01-20T00:42:48.896Z,99.99
2023-01-20T00:43:48.870Z,99.99
2023-01-20T00:44:48.889Z,99.99
2023-01-20T00:45:48.860Z,99.99
2023-01-20T00:46:48.898Z,99.99
2023-01-20T00:47:48.839Z,99.99
2023-01-20T00:48:49.004Z,99.99
2023-01-20T00:49:48.788Z,99.99
2023-01-20T00:50:48.786Z,99.99
2023-01-20T00:51:48.765Z,99.99
2023-01-20T00:52:48.805Z,99.99
2023-01-20T00:53:48.753Z,99.99
2023-01-20T00:54:48.745Z,99.99
2023-01-20T00:55:48.718Z,99.99
2023-01-20T00:56:48.712Z,99.99
2023-01-20T00:57:48.677Z,99.99
2023-01-20T00:58:48.699Z,99.99
2023-01-20T00:59:48.675Z,99.99
2023-01-20T01:00:48.771Z,99.99
2023-01-20T01:01:48.710Z,99.99
2023-01-20T01:02:48.653Z,99.99
2023-01-20T01:03:48.630Z,99.99
2023-01-20T01:04:48.654Z,99.99
2023-01-20T01:05:48.607Z,99.99
2023-01-20T01:06:48.567Z,99.99
2023-01-20T01:07:48.558Z,99.99
2023-01-20T01:08:48.560Z,99.99
2023-01-20T01:09:48.534Z,99.99
2023-01-20T01:10:48.529Z,99.99
2023-01-20T01:11:48.518Z,99.99
2023-01-20T01:12:48.489Z,99.99
2023-01-20T01:13:48.485Z,99.99
2023-01-20T01:14:48.468Z,99.99
2023-01-20T01:15:48.446Z,99.99
2023-01-20T01:16:48.462Z,99.99
2023-01-20T01:17:48.450Z,99.99
2023-01-20T01:18:48.457Z,99.99
2023-01-20T01:19:48.436Z,99.99
2023-01-20T01:20:48.449Z,99.99
2023-01-20T01:21:48.376Z,99.99
2023-01-20T01:22:48.380Z,99.99
2023-01-20T01:23:48.371Z,99.99
2023-01-20T01:24:48.328Z,99.99
2023-01-20T01:25:48.341Z,99.99
2023-01-20T01:26:48.312Z,99.99
2023-01-20T01:27:48.358Z,99.99
2023-01-20T01:28:48.307Z,99.99
2023-01-20T01:29:48.276Z,99.99
2023-01-20T01:30:48.377Z,99.99
2023-01-20T01:31:48.306Z,99.99
2023-01-20T01:32:48.284Z,99.99
2023-01-20T01:33:48.211Z,99.99
2023-01-20T01:34:48.205Z,99.99
2023-01-20T01:35:48.198Z,99.99
2023-01-20T01:36:48.218Z,99.99
2023-01-20T01:37:48.187Z,99.99
2023-01-20T01:38:59.077Z,99.99
2023-01-20T01:39:49.150Z,99.99
2023-01-20T01:40:48.121Z,99.99
2023-01-20T01:41:48.111Z,99.99
2023-01-20T01:42:48.130Z,99.99
2023-01-20T01:43:48.113Z,99.99
2023-01-20T01:44:48.067Z,99.99
2023-01-20T01:45:48.079Z,99.99
2023-01-20T01:46:48.101Z,99.99
2023-01-20T01:47:48.033Z,99.99
2023-01-20T01:48:48.005Z,99.99
2023-01-20T01:49:48.032Z,99.99
2023-01-20T01:50:48.010Z,99.99
2023-01-20T01:51:47.977Z,99.99
2023-01-20T01:52:47.986Z,99.99
2023-01-20T01:53:47.958Z,99.99
2023-01-20T01:54:47.968Z,99.99
2023-01-20T01:55:47.923Z,99.99
2023-01-20T01:56:47.912Z,99.99
2023-01-20T01:57:47.892Z,99.99
2023-01-20T01:58:47.875Z,99.99
2023-01-20T01:59:47.858Z,99.99
2023-01-20T02:00:47.901Z,99.99
2023-01-20T02:01:47.929Z,99.99
2023-01-20T02:02:47.835Z,99.99
2023-01-20T02:03:47.828Z,99.99
2023-01-20T02:04:47.813Z,99.99
2023-01-20T02:05:47.817Z,99.99
2023-01-20T02:06:47.785Z,99.99
2023-01-20T02:07:47.762Z,99.99
2023-01-20T02:08:47.744Z,99.99
2023-01-20T02:09:47.739Z,99.99
2023-01-20T02:10:47.749Z,99.99
2023-01-20T02:11:47.731Z,99.99
2023-01-20T02:12:47.752Z,99.99
2023-01-20T02:13:47.705Z,99.99
2023-01-20T02:14:47.724Z,99.99
2023-01-20T02:15:47.653Z,99.99
2023-01-20T02:16:47.665Z,99.99
2023-01-20T02:17:47.652Z,99.99
2023-01-20T02:18:47.629Z,99.99
2023-01-20T02:19:47.619Z,99.99
2023-01-20T02:20:47.584Z,99.99
2023-01-20T02:21:47.610Z,99.99
2023-01-20T02:22:47.566Z,99.99
2023-01-20T02:23:47.570Z,99.99
2023-01-20T02:24:47.537Z,99.99
2023-01-20T02:25:47.543Z,99.99
2023-01-20T02:26:47.523Z,99.99
2023-01-20T02:27:47.544Z,99.99
2023-01-20T02:28:47.487Z,99.99
2023-01-20T02:29:47.492Z,99.99
2023-01-20T02:30:47.524Z,99.99
2023-01-20T02:31:47.545Z,99.99
2023-01-20T02:32:47.464Z,99.99
2023-01-20T02:33:47.419Z,99.99
2023-01-20T02:34:47.399Z,99.99
2023-01-20T02:35:47.410Z,99.99
2023-01-20T02:36:47.379Z,99.99
2023-01-20T02:37:47.377Z,99.99
2023-01-20T02:38:47.374Z,99.99
2023-01-20T02:39:47.332Z,99.99
2023-01-20T02:40:47.352Z,99.99
2023-01-20T02:41:47.325Z,99.99
2023-01-20T02:42:47.300Z,99.99
2023-01-20T02:43:47.306Z,99.99
2023-01-20T02:44:47.295Z,99.99
2023-01-20T02:45:47.268Z,99.99
2023-01-20T02:46:47.251Z,99.99
2023-01-20T02:47:50.722Z,99.99
2023-01-20T02:48:47.242Z,99.99
2023-01-20T02:49:47.221Z,99.99
2023-01-20T02:50:47.223Z,99.99
2023-01-20T02:51:47.188Z,99.99
2023-01-20T02:52:47.343Z,99.99
2023-01-20T02:53:47.146Z,99.99
2023-01-20T02:54:47.137Z,99.99
2023-01-20T02:55:47.131Z,99.99
2023-01-20T02:56:47.133Z,99.99
2023-01-20T02:57:47.104Z,99.99
2023-01-20T02:58:47.109Z,99.99
2023-01-20T02:59:47.078Z,99.99
2023-01-20T03:00:47.145Z,99.99
2023-01-20T03:01:47.196Z,99.99
2023-01-20T03:02:47.055Z,99.99
2023-01-20T03:03:47.102Z,99.99
2023-01-20T03:04:47.024Z,99.99
2023-01-20T03:05:47.013Z,99.99
2023-01-20T03:06:47.003Z,99.99
2023-01-20T03:07:46.987Z,99.99
2023-01-20T03:08:46.969Z,99.99
2023-01-20T03:09:46.962Z,99.99
2023-01-20T03:10:46.942Z,99.99
2023-01-20T03:11:46.926Z,99.99
2023-01-20T03:12:46.915Z,99.99
2023-01-20T03:13:46.911Z,99.99
2023-01-20T03:14:46.905Z,99.99
2023-01-20T03:15:46.879Z,99.99
2023-01-20T03:16:46.951Z,99.99
2023-01-20T03:17:46.833Z,99.99
2023-01-20T03:18:46.813Z,99.99
2023-01-20T03:19:46.841Z,99.99
2023-01-20T03:20:46.848Z,99.99
2023-01-20T03:21:46.784Z,99.99
2023-01-20T03:22:46.773Z,99.99
2023-01-20T03:23:46.809Z,99.99
2023-01-20T03:24:46.742Z,99.99
2023-01-20T03:25:46.750Z,99.99
2023-01-20T03:26:46.736Z,99.99
2023-01-20T03:27:46.698Z,99.99
2023-01-20T03:28:46.675Z,99.99
2023-01-20T03:29:46.666Z,99.99
2023-01-20T03:30:46.732Z,99.99
2023-01-20T03:31:46.730Z,99.99
2023-01-20T03:32:46.666Z,99.99
2023-01-20T03:33:46.648Z,99.99
2023-01-20T03:34:46.767Z,99.99
2023-01-20T03:35:46.606Z,99.99
2023-01-20T03:36:46.578Z,99.99
2023-01-20T03:37:46.579Z,99.99
2023-01-20T03:38:46.557Z,99.99
2023-01-20T03:39:46.563Z,99.99
2023-01-20T03:40:46.550Z,99.99
2023-01-20T03:41:46.534Z,99.99
2023-01-20T03:42:46.497Z,99.99
2023-01-20T03:43:46.504Z,99.99
2023-01-20T03:44:46.496Z,99.99
2023-01-20T03:45:46.512Z,99.99
2023-01-20T03:46:46.461Z,99.99
2023-01-20T03:47:46.443Z,99.99
2023-01-20T03:48:46.418Z,99.99
2023-01-20T03:49:46.434Z,99.99
2023-01-20T03:50:46.428Z,99.99
2023-01-20T03:51:46.410Z,99.99
2023-01-20T03:52:47.908Z,99.99
2023-01-20T03:53:46.362Z,99.99
2023-01-20T03:54:46.352Z,99.99
2023-01-20T03:55:46.332Z,99.99
2023-01-20T03:56:46.331Z,99.99
2023-01-20T03:57:46.302Z,99.99
2023-01-20T03:58:46.290Z,99.99
2023-01-20T03:59:46.290Z,99.99
2023-01-20T04:00:46.283Z,99.99
2023-01-20T04:01:46.365Z,99.99
2023-01-20T04:02:46.241Z,99.99
2023-01-20T04:03:46.263Z,99.99
2023-01-20T04:04:46.209Z,99.99
2023-01-20T04:05:46.240Z,99.99
2023-01-20T04:06:46.202Z,99.99
2023-01-20T04:07:46.218Z,99.99
2023-01-20T04:08:46.194Z,99.99
2023-01-20T04:09:46.154Z,99.99
2023-01-20T04:10:46.171Z,99.99
2023-01-20T04:11:46.142Z,99.99
2023-01-20T04:12:46.157Z,99.99
2023-01-20T04:13:46.120Z,99.99
2023-01-20T04:14:46.084Z,99.99
2023-01-20T04:15:46.129Z,99.99
2023-01-20T04:16:46.075Z,99.99
2023-01-20T04:17:46.123Z,99.99
2023-01-20T04:18:46.060Z,99.99
2023-01-20T04:19:54.248Z,99.99
2023-01-20T04:20:45.989Z,99.99
2023-01-20T04:21:46.031Z,99.99
2023-01-20T04:22:46.032Z,99.99
2023-01-20T04:23:45.955Z,99.99
2023-01-20T04:24:45.940Z,99.99
2023-01-20T04:25:45.932Z,99.99
2023-01-20T04:26:45.936Z,99.99
2023-01-20T04:27:45.929Z,99.99
2023-01-20T04:28:45.953Z,99.99
2023-01-20T04:29:45.909Z,99.99
2023-01-20T04:30:45.987Z,99.99
2023-01-20T04:31:45.952Z,99.99
2023-01-20T04:32:45.825Z,99.99
2023-01-20T04:33:45.818Z,99.99
2023-01-20T04:34:45.814Z,99.99
2023-01-20T04:35:45.808Z,99.99
2023-01-20T04:36:45.794Z,99.99
2023-01-20T04:37:45.768Z,99.99
2023-01-20T04:38:45.749Z,99.99
2023-01-20T04:39:45.748Z,99.99
2023-01-20T04:40:45.771Z,99.99
2023-01-20T04:41:45.763Z,99.99
2023-01-20T04:42:45.696Z,99.99
2023-01-20T04:43:45.679Z,99.99
2023-01-20T04:44:45.683Z,99.99
2023-01-20T04:45:45.700Z,99.99
2023-01-20T04:46:45.678Z,99.99
2023-01-20T04:47:45.667Z,99.99
2023-01-20T04:48:45.606Z,99.99
2023-01-20T04:49:45.685Z,99.99
2023-01-20T04:50:45.621Z,99.99
2023-01-20T04:51:45.625Z,99.99
2023-01-20T04:52:45.609Z,99.99
2023-01-20T04:53:45.563Z,99.99
2023-01-20T04:54:45.563Z,99.99
2023-01-20T04:55:45.551Z,99.99
2023-01-20T04:56:45.557Z,99.99
2023-01-20T04:57:45.513Z,99.99
2023-01-20T04:58:45.471Z,99.99
2023-01-20T04:59:45.527Z,99.99
2023-01-20T05:00:45.486Z,99.99
2023-01-20T05:01:45.555Z,99.99
2023-01-20T05:02:45.477Z,99.99
2023-01-20T05:03:45.433Z,99.99
2023-01-20T05:04:45.433Z,99.99
2023-01-20T05:05:45.391Z,99.99
2023-01-20T05:06:45.430Z,99.99
2023-01-20T05:07:45.371Z,99.99
2023-01-20T05:08:45.351Z,99.99
2023-01-20T05:09:45.382Z,99.99
2023-01-20T05:10:45.363Z,99.99
2023-01-20T05:11:45.319Z,99.99
2023-01-20T05:12:45.338Z,99.99
2023-01-20T05:13:45.316Z,99.99
2023-01-20T05:14:45.269Z,99.99
2023-01-20T05:15:45.341Z,99.99
2023-01-20T05:16:45.273Z,99.99
2023-01-20T05:17:45.228Z,99.99
2023-01-20T05:18:45.276Z,99.99
2023-01-20T05:19:45.246Z,99.99
2023-01-20T05:20:45.199Z,99.99
2023-01-20T05:21:45.189Z,99.99
2023-01-20T05:22:45.192Z,99.99
2023-01-20T05:23:45.163Z,99.99
2023-01-20T05:24:45.136Z,99.99
2023-01-20T05:25:45.164Z,99.99
2023-01-20T05:26:45.108Z,99.99
2023-01-20T05:27:45.123Z,99.99
2023-01-20T05:28:45.102Z,99.99
2023-01-20T05:29:45.104Z,99.99
2023-01-20T05:30:45.205Z,99.99
2023-01-20T05:31:45.129Z,99.99
2023-01-20T05:32:45.033Z,99.99
2023-01-20T05:33:45.036Z,99.99
2023-01-20T05:34:45.050Z,99.99
2023-01-20T05:35:45.016Z,99.99
2023-01-20T05:36:44.999Z,99.99
2023-01-20T05:37:45.042Z,99.99
2023-01-20T05:38:44.943Z,99.99
2023-01-20T05:39:44.943Z,99.99
2023-01-20T05:40:44.954Z,99.99
2023-01-20T05:41:44.935Z,99.99
2023-01-20T05:42:44.915Z,99.99
2023-01-20T05:43:44.929Z,99.99
2023-01-20T05:44:44.899Z,99.99
2023-01-20T05:45:44.915Z,99.99
2023-01-20T05:46:44.910Z,99.99
2023-01-20T05:47:44.834Z,99.99
2023-01-20T05:48:44.827Z,99.99
2023-01-20T05:49:44.839Z,99.99
2023-01-20T05:50:44.810Z,99.99
2023-01-20T05:51:44.789Z,99.99
2023-01-20T05:52:44.771Z,99.99
2023-01-20T05:53:44.747Z,99.99
2023-01-20T05:54:44.786Z,99.99
2023-01-20T05:55:44.765Z,99.99
2023-01-20T05:56:44.759Z,99.99
2023-01-20T05:57:44.693Z,99.99
2023-01-20T05:58:44.735Z,99.99
2023-01-20T05:59:44.669Z,99.99
2023-01-20T06:00:44.675Z,99.99
2023-01-20T06:01:44.650Z,99.99
2023-01-20T06:02:44.640Z,99.99
2023-01-20T06:03:44.681Z,99.99
2023-01-20T06:04:44.617Z,99.99
2023-01-20T06:05:44.604Z,99.99
2023-01-20T06:06:44.604Z,99.99
2023-01-20T06:07:44.590Z,99.99
2023-01-20T06:08:44.582Z,99.99
2023-01-20T06:09:44.581Z,99.99
2023-01-20T06:10:44.563Z,99.99
2023-01-20T06:11:44.501Z,99.99
2023-01-20T06:12:44.535Z,99.99
2023-01-20T06:13:44.531Z,99.99
2023-01-20T06:14:44.477Z,99.99
2023-01-20T06:15:44.483Z,99.99
2023-01-20T06:16:44.465Z,99.99
2023-01-20T06:17:44.451Z,99.99
2023-01-20T06:18:44.445Z,99.99
2023-01-20T06:19:44.415Z,99.99
2023-01-20T06:20:44.404Z,99.99
2023-01-20T06:21:46.788Z,99.99
2023-01-20T06:22:44.432Z,99.99
2023-01-20T06:23:44.360Z,99.99
2023-01-20T06:24:44.364Z,99.99
2023-01-20T06:25:44.314Z,99.99
2023-01-20T06:26:44.330Z,99.99
2023-01-20T06:27:44.297Z,99.99
2023-01-20T06:28:44.330Z,99.99
2023-01-20T06:29:44.280Z,99.99
2023-01-20T06:30:44.281Z,99.99
2023-01-20T06:31:44.329Z,99.99
2023-01-20T06:32:51.773Z,99.99
2023-01-20T06:33:44.257Z,99.99
2023-01-20T06:34:44.235Z,99.99
2023-01-20T06:35:44.212Z,99.99
2023-01-20T06:36:44.210Z,99.99
2023-01-20T06:37:44.167Z,99.99
2023-01-20T06:38:44.189Z,99.99
2023-01-20T06:39:44.201Z,99.99
2023-01-20T06:40:44.176Z,99.99
2023-01-20T06:41:44.172Z,99.99
2023-01-20T06:42:44.141Z,99.99
2023-01-20T06:43:44.109Z,99.99
2023-01-20T06:44:44.118Z,99.99
2023-01-20T06:45:44.093Z,99.99
2023-01-20T06:46:44.866Z,99.99
2023-01-20T06:47:44.062Z,99.99
2023-01-20T06:48:44.062Z,99.99
2023-01-20T06:49:44.064Z,99.99
2023-01-20T06:50:44.059Z,99.99
2023-01-20T06:51:44.040Z,99.99
2023-01-20T06:52:43.992Z,99.99
2023-01-20T06:53:43.977Z,99.99
2023-01-20T06:54:43.995Z,99.99
2023-01-20T06:55:43.951Z,99.99
2023-01-20T06:56:43.950Z,99.99
2023-01-20T06:57:43.915Z,99.99
2023-01-20T06:58:43.934Z,99.99
2023-01-20T06:59:43.892Z,99.99
2023-01-20T07:00:43.963Z,99.99
2023-01-20T07:01:43.979Z,99.99
2023-01-20T07:02:43.908Z,99.99
2023-01-20T07:03:43.878Z,99.99
2023-01-20T07:04:43.829Z,99.99
2023-01-20T07:05:43.824Z,99.99
2023-01-20T07:06:43.799Z,99.99
2023-01-20T07:07:43.802Z,99.99
2023-01-20T07:08:43.768Z,99.99
2023-01-20T07:09:43.762Z,99.99
2023-01-20T07:10:43.772Z,99.99
2023-01-20T07:11:43.741Z,99.99
2023-01-20T07:12:43.743Z,99.99
2023-01-20T07:13:43.720Z,99.99
2023-01-20T07:14:43.708Z,99.99
2023-01-20T07:15:43.686Z,99.99
2023-01-20T07:16:43.756Z,99.99
2023-01-20T07:17:43.693Z,99.99
2023-01-20T07:18:43.662Z,99.99
2023-01-20T07:19:43.619Z,99.99
2023-01-20T07:20:43.619Z,99.99
2023-01-20T07:21:43.626Z,99.99
2023-01-20T07:22:43.599Z,99.99
2023-01-20T07:23:43.580Z,99.99
2023-01-20T07:24:43.566Z,99.99
2023-01-20T07:25:43.553Z,99.99
2023-01-20T07:26:43.552Z,99.99
2023-01-20T07:27:43.545Z,99.99
2023-01-20T07:28:43.512Z,99.99
2023-01-20T07:29:43.504Z,99.99
2023-01-20T07:30:43.529Z,99.99
2023-01-20T07:31:43.600Z,99.99
2023-01-20T07:32:43.472Z,99.99
2023-01-20T07:33:43.444Z,99.99
2023-01-20T07:34:43.479Z,99.99
2023-01-20T07:35:43.463Z,99.99
2023-01-20T07:36:43.465Z,99.99
2023-01-20T07:37:43.411Z,99.99
2023-01-20T07:38:43.386Z,99.99
2023-01-20T07:39:43.450Z,99.99
2023-01-20T07:40:43.389Z,99.99
2023-01-20T07:41:43.335Z,99.99
2023-01-20T07:42:43.385Z,99.99
2023-01-20T07:43:43.333Z,99.99
2023-01-20T07:44:43.303Z,99.99
2023-01-20T07:45:43.329Z,99.99
2023-01-20T07:46:43.285Z,99.99
2023-01-20T07:47:43.278Z,99.99
2023-01-20T07:48:43.237Z,99.99
2023-01-20T07:49:43.239Z,99.99
2023-01-20T07:50:43.259Z,99.99
2023-01-20T07:51:43.196Z,99.99
2023-01-20T07:52:43.237Z,99.99
2023-01-20T07:53:43.185Z,99.99
2023-01-20T07:54:43.176Z,99.99
2023-01-20T07:55:43.166Z,99.99
2023-01-20T07:56:43.146Z,99.99
2023-01-20T07:57:43.134Z,99.99
2023-01-20T07:58:43.142Z,99.99
2023-01-20T07:59:43.110Z,99.99
2023-01-20T08:00:43.283Z,99.99
2023-01-20T08:01:43.175Z,99.99
2023-01-20T08:02:43.071Z,99.99
2023-01-20T08:03:43.053Z,99.99
2023-01-20T08:04:43.184Z,99.99
2023-01-20T08:05:43.070Z,99.99
2023-01-20T08:06:43.007Z,99.99
2023-01-20T08:07:43.021Z,99.99
2023-01-20T08:08:43.036Z,99.99
2023-01-20T08:09:42.967Z,99.99
2023-01-20T08:10:42.983Z,99.85
2023-01-20T08:11:42.943Z,99.99
2023-01-20T08:12:42.960Z,99.85
2023-01-20T08:13:42.923Z,99.96
2023-01-20T08:14:42.919Z,99.75
2023-01-20T08:15:42.882Z,99.54
2023-01-20T08:16:42.913Z,99.75
2023-01-20T08:17:42.870Z,99.75
2023-01-20T08:18:42.888Z,99.44
2023-01-20T08:19:42.840Z,99.54
2023-01-20T08:20:42.834Z,99.44
2023-01-20T08:21:42.799Z,99.44
2023-01-20T08:22:42.809Z,99.54
2023-01-20T08:23:42.772Z,99.33
2023-01-20T08:24:42.811Z,99.44
2023-01-20T08:25:42.750Z,99.54
2023-01-20T08:26:42.743Z,99.54
2023-01-20T08:27:42.764Z,99.44
2023-01-20T08:28:42.730Z,99.54
2023-01-20T08:29:42.709Z,99.33
2023-01-20T08:30:42.817Z,99.23
2023-01-20T08:31:42.796Z,99.44
2023-01-20T08:32:42.674Z,99.33
2023-01-20T08:33:42.669Z,99.44
2023-01-20T08:34:42.674Z,99.65
2023-01-20T08:35:42.659Z,99.85
2023-01-20T08:36:42.617Z,99.65
2023-01-20T08:37:42.617Z,99.44
2023-01-20T08:38:42.615Z,99.23
2023-01-20T08:39:42.574Z,99.23
2023-01-20T08:40:42.579Z,99.13
2023-01-20T08:41:42.563Z,99.23
2023-01-20T08:42:42.534Z,98.92
2023-01-20T08:43:42.540Z,98.82
2023-01-20T08:44:42.495Z,99.13
2023-01-20T08:45:42.530Z,99.23
2023-01-20T08:46:42.523Z,99.44
2023-01-20T08:47:42.477Z,99.23
2023-01-20T08:48:42.463Z,99.33
2023-01-20T08:49:42.446Z,99.33
2023-01-20T08:50:42.442Z,99.13
2023-01-20T08:51:42.464Z,99.13
2023-01-20T08:52:42.428Z,99.08
2023-01-20T08:53:42.377Z,98.97
2023-01-20T08:54:42.391Z,98.66
2023-01-20T08:55:42.399Z,98.66
2023-01-20T08:56:42.339Z,98.66
2023-01-20T08:57:42.380Z,98.46
2023-01-20T08:58:42.371Z,98.14
2023-01-20T08:59:42.320Z,98.14
2023-01-20T09:00:42.281Z,98.25
2023-01-20T09:01:42.328Z,98.25
2023-01-20T09:02:42.411Z,98.25
2023-01-20T09:03:49.431Z,98.25
2023-01-20T09:04:43.239Z,97.94
2023-01-20T09:05:42.228Z,97.83
2023-01-20T09:06:42.234Z,97.83
2023-01-20T09:07:42.211Z,97.41
2023-01-20T09:08:42.238Z,97.41
2023-01-20T09:09:42.195Z,97.62
2023-01-20T09:10:42.158Z,97.62
2023-01-20T09:11:42.209Z,97.62
2023-01-20T09:12:42.172Z,97.62
2023-01-20T09:13:42.141Z,97.31
2023-01-20T09:14:42.133Z,97.52
2023-01-20T09:15:42.130Z,97.41
2023-01-20T09:16:42.091Z,97.41
2023-01-20T09:17:42.096Z,97.31
2023-01-20T09:18:42.053Z,97.52
2023-01-20T09:19:42.046Z,97.62
2023-01-20T09:20:42.032Z,97.72
2023-01-20T09:21:42.030Z,97.72
2023-01-20T09:22:42.021Z,97.62
2023-01-20T09:23:42.023Z,97.52
2023-01-20T09:24:41.985Z,97.62
2023-01-20T09:25:41.953Z,97.94
2023-01-20T09:26:41.992Z,97.41
2023-01-20T09:27:41.935Z,97.31
2023-01-20T09:28:41.950Z,97.52
2023-01-20T09:29:41.942Z,97.52
2023-01-20T09:30:41.955Z,97.41
2023-01-20T09:31:41.935Z,97.52
2023-01-20T09:32:41.872Z,97.58
2023-01-20T09:33:41.867Z,97.41
2023-01-20T09:34:41.834Z,97.41
2023-01-20T09:35:41.843Z,97.41
2023-01-20T09:36:41.822Z,97.62
2023-01-20T09:37:41.791Z,97.52
2023-01-20T09:38:41.775Z,97.52
2023-01-20T09:39:41.779Z,97.72
2023-01-20T09:40:41.786Z,97.72
2023-01-20T09:41:42.260Z,97.62
2023-01-20T09:42:41.739Z,97.83
2023-01-20T09:43:41.705Z,97.89
2023-01-20T09:44:41.701Z,97.99
2023-01-20T09:45:41.742Z,97.68
2023-01-20T09:46:41.725Z,97.58
2023-01-20T09:47:41.684Z,97.68
2023-01-20T09:48:41.656Z,97.37
2023-01-20T09:49:41.631Z,96.95
2023-01-20T09:50:41.642Z,96.64
2023-01-20T09:51:41.624Z,97.06
2023-01-20T09:52:41.600Z,97.16
2023-01-20T09:53:41.585Z,97.06
2023-01-20T09:54:41.579Z,96.53
2023-01-20T09:55:41.588Z,96.53
2023-01-20T09:56:41.551Z,97.06
2023-01-20T09:57:41.528Z,97.16
2023-01-20T09:58:41.519Z,96.75
2023-01-20T09:59:41.505Z,96.80
2023-01-20T10:00:41.514Z,96.59
2023-01-20T10:01:41.565Z,96.18
2023-01-20T10:02:41.461Z,96.08
2023-01-20T10:03:41.472Z,96.08
2023-01-20T10:04:41.453Z,95.76
2023-01-20T10:05:41.473Z,95.87
2023-01-20T10:06:41.416Z,95.97
2023-01-20T10:07:41.421Z,96.08
2023-01-20T10:08:41.401Z,95.25
2023-01-20T10:09:41.412Z,95.56
2023-01-20T10:10:41.368Z,95.87
2023-01-20T10:11:41.451Z,95.81
2023-01-20T10:12:49.194Z,96.01
2023-01-20T10:13:49.859Z,96.18
2023-01-20T10:14:48.822Z,95.70
2023-01-20T10:15:48.884Z,95.97
2023-01-20T10:16:48.909Z,96.18
2023-01-20T10:17:48.846Z,95.76
2023-01-20T10:18:50.027Z,96.08
2023-01-20T10:46:16.818Z,93.12
2023-01-20T10:47:15.375Z,93.54
2023-01-20T10:48:15.323Z,93.23
2023-01-20T10:49:15.296Z,93.85
2023-01-20T10:50:15.262Z,93.91
2023-01-20T10:51:15.250Z,94.22
2023-01-20T10:52:15.592Z,94.01
2023-01-20T10:53:15.229Z,93.76
2023-01-20T10:54:15.208Z,93.24
2023-01-20T10:55:15.535Z,93.55
2023-01-20T10:56:15.230Z,92.30
2023-01-20T10:57:15.213Z,92.20
2023-01-20T10:58:15.164Z,92.30
2023-01-20T10:59:15.185Z,92.61
2023-01-20T11:00:15.407Z,92.82
2023-01-20T11:01:15.179Z,92.82
2023-01-20T11:02:15.138Z,92.82
2023-01-20T11:03:15.144Z,92.88
2023-01-20T11:04:15.068Z,91.89
2023-01-20T11:05:15.107Z,92.10
2023-01-20T11:06:15.045Z,92.30
2023-01-20T11:07:15.041Z,92.10
2023-01-20T11:08:15.055Z,91.89
2023-01-20T11:09:15.053Z,92.51
2023-01-20T11:10:15.188Z,92.61
2023-01-20T11:11:15.180Z,92.82
2023-01-20T11:12:14.995Z,93.14
2023-01-20T11:13:15.007Z,93.66
2023-01-20T11:14:14.945Z,92.61
2023-01-20T11:15:14.973Z,91.52
2023-01-20T11:16:14.956Z,91.83
2023-01-20T11:17:14.907Z,92.03
2023-01-20T11:18:14.976Z,91.83
2023-01-20T11:19:14.911Z,92.30
2023-01-20T11:20:15.091Z,92.10
2023-01-20T11:21:14.907Z,92.41
2023-01-20T11:22:14.835Z,91.99
2023-01-20T11:23:14.832Z,92.30
2023-01-20T11:24:14.851Z,92.41
2023-01-20T11:25:14.865Z,92.47
2023-01-20T11:26:14.795Z,91.74
2023-01-20T11:27:14.787Z,91.53
2023-01-20T11:28:14.777Z,91.53
2023-01-20T11:29:14.772Z,90.85
2023-01-20T11:30:15.062Z,90.44
2023-01-20T11:31:15.233Z,90.75
2023-01-20T11:32:14.708Z,91.22
2023-01-20T11:33:14.719Z,91.64
2023-01-20T11:34:14.683Z,90.91
2023-01-20T11:35:14.918Z,91.22
2023-01-20T11:36:14.655Z,91.12
2023-01-20T11:37:14.697Z,91.02
2023-01-20T11:38:14.633Z,90.50
2023-01-20T11:39:14.623Z,90.39
2023-01-20T11:40:14.862Z,90.81
2023-01-20T11:41:14.627Z,90.81
2023-01-20T11:42:14.625Z,90.81
2023-01-20T11:43:14.586Z,90.70
2023-01-20T11:44:14.572Z,90.64
2023-01-20T11:45:21.190Z,90.44
2023-01-20T11:46:15.576Z,90.54
2023-01-20T11:47:14.501Z,90.75
2023-01-20T11:48:16.274Z,91.06
2023-01-20T11:49:14.498Z,91.37
2023-01-20T11:50:14.760Z,91.06
2023-01-20T11:51:14.466Z,91.33
2023-01-20T11:52:14.441Z,91.27
2023-01-20T11:53:14.462Z,90.44
2023-01-20T11:54:14.410Z,90.95
2023-01-20T11:55:14.466Z,91.06
2023-01-20T11:56:14.402Z,91.37
2023-01-20T11:57:14.385Z,91.58
2023-01-20T11:58:14.376Z,90.75
2023-01-20T11:59:14.350Z,91.16
2023-01-20T12:00:14.634Z,91.47
2023-01-20T12:01:14.331Z,91.47
2023-01-20T12:02:14.350Z,91.16
2023-01-20T12:03:14.342Z,91.78
2023-01-20T12:04:14.359Z,91.27
2023-01-20T12:05:14.318Z,90.95
2023-01-20T12:06:14.281Z,91.16
2023-01-20T12:07:14.243Z,91.37
2023-01-20T12:08:14.236Z,90.85
2023-01-20T12:09:14.240Z,91.16
2023-01-20T12:10:14.524Z,91.37
2023-01-20T12:11:14.195Z,90.95
2023-01-20T12:12:14.181Z,90.95
2023-01-20T12:13:14.166Z,90.44
2023-01-20T12:14:14.151Z,90.64
2023-01-20T12:15:14.153Z,90.75
2023-01-20T12:16:14.221Z,91.27
2023-01-20T12:17:14.110Z,90.85
2023-01-20T12:18:14.105Z,90.54
2023-01-20T12:19:14.162Z,90.64
2023-01-20T12:20:14.464Z,90.85
2023-01-20T12:21:14.074Z,90.95
2023-01-20T12:22:14.061Z,90.85
2023-01-20T12:23:14.033Z,90.54
2023-01-20T12:24:14.040Z,90.85
2023-01-20T12:25:14.010Z,90.44
2023-01-20T12:26:14.055Z,90.23
2023-01-20T12:27:14.015Z,90.23
2023-01-20T12:28:13.963Z,90.54
2023-01-20T12:29:13.994Z,90.23
2023-01-20T12:30:14.145Z,90.64
2023-01-20T12:31:13.932Z,91.06
2023-01-20T12:32:13.933Z,90.54
2023-01-20T12:33:13.904Z,90.23
2023-01-20T12:34:13.894Z,90.54
2023-01-20T12:35:13.881Z,90.12
2023-01-20T12:36:13.868Z,90.64
2023-01-20T12:37:13.874Z,90.64
2023-01-20T12:38:13.835Z,90.95
2023-01-20T12:39:13.929Z,90.50
2023-01-20T12:40:14.191Z,89.87
2023-01-20T12:41:13.795Z,90.19
2023-01-20T12:42:13.796Z,89.67
2023-01-20T12:43:13.774Z,89.77
2023-01-20T12:44:13.755Z,89.67
2023-01-20T12:45:13.760Z,89.50
2023-01-20T12:46:13.769Z,89.50
2023-01-20T12:47:14.641Z,89.39
2023-01-20T12:48:13.710Z,89.39
2023-01-20T12:49:13.699Z,89.39
2023-01-20T12:50:13.957Z,88.87
2023-01-20T12:51:13.659Z,89.18
2023-01-20T12:52:13.662Z,89.18
2023-01-20T12:53:16.666Z,89.18
2023-01-20T12:54:13.633Z,89.18
2023-01-20T12:55:13.617Z,89.50
2023-01-20T12:56:13.615Z,89.70
2023-01-20T12:57:13.577Z,89.92
2023-01-20T12:58:13.557Z,89.29
2023-01-20T12:59:16.328Z,89.70
2023-01-20T13:00:13.897Z,90.19
2023-01-20T13:01:13.567Z,90.50
2023-01-20T13:02:13.517Z,89.87
2023-01-20T13:03:13.520Z,89.56
2023-01-20T13:04:13.531Z,89.15
2023-01-20T13:05:14.899Z,89.39
2023-01-20T13:06:13.476Z,88.77
2023-01-20T13:07:13.461Z,89.18
2023-01-20T13:08:13.443Z,89.18
2023-01-20T13:09:13.471Z,89.70
2023-01-20T13:10:13.795Z,89.70
2023-01-20T13:11:13.446Z,89.60
2023-01-20T13:12:13.402Z,89.81
2023-01-20T13:13:13.416Z,89.81
2023-01-20T13:14:13.378Z,89.60
2023-01-20T13:15:13.333Z,89.18
2023-01-20T13:16:13.520Z,89.08
2023-01-20T13:17:13.331Z,89.18
2023-01-20T13:18:13.303Z,88.98
2023-01-20T13:19:13.289Z,89.18